createdAt,value
2019-05-15T00:00:18.390Z,91.10
2019-05-15T00:02:48.205Z,91.70
2019-05-15T00:05:18.666Z,93.10
2019-05-15T00:07:48.393Z,92.70
2019-05-15T00:10:18.130Z,93.10
2019-05-15T00:12:48.627Z,92.40
2019-05-15T00:15:18.275Z,92.60
2019-05-15T00:17:48.516Z,92.10
2019-05-15T00:20:20.086Z,92.50
2019-05-15T00:22:53.018Z,92.90
2019-05-15T00:25:22.800Z,93.00
2019-05-15T00:27:51.279Z,93.10
2019-05-15T00:30:20.035Z,94.70
2019-05-15T00:32:48.825Z,95.40
2019-05-15T00:35:18.385Z,95.00
2019-05-15T00:37:49.235Z,95.50
2019-05-15T00:40:18.415Z,95.60
2019-05-15T00:42:48.621Z,95.60
2019-05-15T00:45:18.525Z,96.30
2019-05-15T00:47:48.712Z,96.10
2019-05-15T00:50:18.338Z,95.90
2019-05-15T00:52:48.432Z,96.40
2019-05-15T00:55:19.073Z,97.40
2019-05-15T00:57:48.658Z,97.30
2019-05-15T01:00:28.192Z,96.80
2019-05-15T01:02:57.839Z,98.40
2019-05-15T01:05:28.018Z,98.30
2019-05-15T01:07:58.660Z,98.60
2019-05-15T01:10:28.688Z,99.00
2019-05-15T01:12:58.402Z,98.30
2019-05-15T01:15:29.023Z,98.90
2019-05-15T01:17:58.310Z,98.30
2019-05-15T01:20:28.575Z,99.30
2019-05-15T01:22:59.043Z,98.30
2019-05-15T01:25:28.012Z,98.20
2019-05-15T01:27:58.346Z,98.50
2019-05-15T01:30:28.653Z,99.20
2019-05-15T01:32:59.061Z,98.70
2019-05-15T01:35:28.695Z,99.30
2019-05-15T01:37:58.551Z,99.90
2019-05-15T01:40:28.883Z,99.90
2019-05-15T01:42:58.257Z,99.90
2019-05-15T01:45:28.690Z,99.90
2019-05-15T01:47:58.596Z,99.90
2019-05-15T01:50:29.113Z,99.90
2019-05-15T01:52:58.578Z,99.90
2019-05-15T01:55:28.438Z,99.90
2019-05-15T01:57:58.189Z,99.90
2019-05-15T02:00:28.213Z,99.90
2019-05-15T02:02:58.735Z,99.90
2019-05-15T02:05:28.301Z,99.90
2019-05-15T02:07:58.595Z,99.90
2019-05-15T02:10:29.032Z,99.90
2019-05-15T02:12:58.788Z,99.90
2019-05-15T02:15:28.515Z,99.90
2019-05-15T02:17:58.776Z,99.90
2019-05-15T02:20:29.133Z,99.90
2019-05-15T02:22:59.120Z,99.90
2019-05-15T02:25:28.055Z,99.90
2019-05-15T02:27:58.573Z,99.90
2019-05-15T02:30:30.313Z,99.90
2019-05-15T02:32:58.993Z,99.90
2019-05-15T02:35:29.536Z,99.90
2019-05-15T02:37:59.761Z,99.90
2019-05-15T02:40:29.450Z,99.90
2019-05-15T02:42:59.134Z,99.90
2019-05-15T02:45:30.072Z,99.90
2019-05-15T02:47:59.658Z,99.90
2019-05-15T02:50:29.289Z,99.90
2019-05-15T02:53:00.502Z,99.90
2019-05-15T02:55:29.610Z,99.90
2019-05-15T02:57:59.027Z,99.90
2019-05-15T03:00:37.754Z,99.90
2019-05-15T03:03:00.116Z,99.90
2019-05-15T03:05:29.601Z,99.90
2019-05-15T03:07:59.341Z,99.90
2019-05-15T03:10:29.617Z,99.90
2019-05-15T03:13:00.107Z,99.90
2019-05-15T03:15:29.222Z,99.90
2019-05-15T03:18:00.358Z,99.90
2019-05-15T03:20:29.843Z,99.90
2019-05-15T03:22:59.697Z,99.90
2019-05-15T03:25:29.719Z,99.90
2019-05-15T03:27:59.533Z,99.90
2019-05-15T03:30:32.329Z,99.90
2019-05-15T03:33:03.961Z,99.90
2019-05-15T03:35:32.784Z,99.90
2019-05-15T03:37:59.969Z,99.90
2019-05-15T03:40:29.853Z,99.90
2019-05-15T03:42:59.474Z,99.90
2019-05-15T03:45:29.722Z,99.90
2019-05-15T03:47:59.520Z,99.90
2019-05-15T03:50:29.322Z,99.90
2019-05-15T03:52:58.854Z,99.90
2019-05-15T03:55:29.605Z,99.90
2019-05-15T03:57:59.157Z,99.90
2019-05-15T04:00:30.139Z,99.90
2019-05-15T04:02:59.158Z,99.90
2019-05-15T04:05:29.362Z,99.90
2019-05-15T04:07:59.774Z,99.90
2019-05-15T04:10:29.009Z,99.90
2019-05-15T04:13:00.067Z,99.90
2019-05-15T04:15:30.094Z,99.90
2019-05-15T04:18:00.327Z,99.90
2019-05-15T04:20:30.171Z,99.90
2019-05-15T04:23:00.274Z,99.90
2019-05-15T04:25:30.490Z,99.90
2019-05-15T04:28:00.663Z,99.90
2019-05-15T04:30:30.769Z,99.90
2019-05-15T04:32:59.661Z,99.90
2019-05-15T04:35:29.038Z,99.90
2019-05-15T04:37:59.720Z,99.90
2019-05-15T04:40:29.910Z,99.90
2019-05-15T04:42:59.406Z,99.90
2019-05-15T04:45:34.400Z,99.90
2019-05-15T04:47:58.851Z,99.90
2019-05-15T04:50:28.706Z,99.90
2019-05-15T04:52:59.313Z,99.90
2019-05-15T04:55:29.000Z,99.90
2019-05-15T04:57:59.198Z,99.90
2019-05-15T05:00:49.657Z,99.90
2019-05-15T05:03:19.723Z,99.90
2019-05-15T05:05:49.872Z,99.90
2019-05-15T05:08:20.153Z,99.90
2019-05-15T05:10:49.035Z,99.90
2019-05-15T05:13:19.966Z,99.90
2019-05-15T05:15:50.064Z,99.90
2019-05-15T05:18:20.394Z,99.90
2019-05-15T05:20:49.175Z,99.90
2019-05-15T05:23:19.188Z,99.90
2019-05-15T05:25:49.063Z,99.90
2019-05-15T05:28:18.933Z,99.90
2019-05-15T05:30:48.646Z,99.90
2019-05-15T05:33:17.993Z,99.90
2019-05-15T05:35:48.986Z,99.90
2019-05-15T05:38:19.379Z,99.90
2019-05-15T05:40:49.448Z,99.90
2019-05-15T05:43:19.311Z,99.90
2019-05-15T05:45:49.109Z,99.90
2019-05-15T05:48:18.959Z,99.90
2019-05-15T05:50:49.761Z,99.90
2019-05-15T05:53:21.184Z,99.90
2019-05-15T05:55:53.233Z,99.90
2019-05-15T05:58:21.045Z,99.90
2019-05-15T06:00:58.600Z,99.90
2019-05-15T06:03:49.439Z,99.90
2019-05-15T06:06:22.367Z,99.90
2019-05-15T06:09:00.526Z,99.90
2019-05-15T06:11:38.480Z,99.90
2019-05-15T06:14:23.234Z,99.90
2019-05-15T06:16:59.367Z,99.90
2019-05-15T06:19:38.628Z,99.90
2019-05-15T06:22:15.261Z,99.90
2019-05-15T06:24:52.235Z,99.90
2019-05-15T06:27:28.132Z,99.90
2019-05-15T06:30:02.293Z,99.90
2019-05-15T06:32:40.336Z,99.90
2019-05-15T06:35:19.864Z,99.90
2019-05-15T06:37:59.439Z,99.90
2019-05-15T06:40:39.623Z,99.90
2019-05-15T06:43:22.187Z,99.90
2019-05-15T06:45:58.492Z,99.90
2019-05-15T06:48:37.966Z,99.90
2019-05-15T06:51:18.001Z,99.90
2019-05-15T06:53:59.137Z,99.90
2019-05-15T06:56:32.045Z,99.90
2019-05-15T06:59:09.197Z,99.90
2019-05-15T07:01:50.095Z,99.90
2019-05-15T07:04:31.174Z,99.70
2019-05-15T07:07:11.211Z,98.70
2019-05-15T07:09:48.683Z,97.90
2019-05-15T07:12:30.091Z,97.10
2019-05-15T07:15:05.244Z,97.20
2019-05-15T07:17:43.296Z,96.50
2019-05-15T07:20:23.419Z,95.70
2019-05-15T07:23:00.784Z,94.70
2019-05-15T07:25:39.343Z,94.50
2019-05-15T07:28:18.145Z,93.90
2019-05-15T07:30:59.642Z,93.50
2019-05-15T07:33:42.571Z,94.40
2019-05-15T07:36:13.299Z,93.60
2019-05-15T07:38:54.249Z,92.70
2019-05-15T07:41:32.489Z,93.10
2019-05-15T07:44:10.714Z,92.30
2019-05-15T07:46:48.689Z,91.80
2019-05-15T07:49:29.734Z,92.60
2019-05-15T07:52:08.447Z,90.80
2019-05-15T07:54:48.821Z,90.20
2019-05-15T07:57:23.421Z,91.00
2019-05-15T08:00:04.514Z,90.00
2019-05-15T08:02:48.137Z,91.00
2019-05-15T08:05:25.545Z,89.30
2019-05-15T08:08:03.742Z,90.60
2019-05-15T08:10:40.597Z,89.70
2019-05-15T08:13:22.523Z,89.20
2019-05-15T08:16:02.936Z,88.70
2019-05-15T08:18:41.754Z,90.60
2019-05-15T08:21:21.018Z,87.20
2019-05-15T08:23:58.843Z,86.80
2019-05-15T08:26:37.983Z,86.70
2019-05-15T08:29:14.423Z,86.10
2019-05-15T08:31:53.416Z,87.80
2019-05-15T08:34:28.227Z,85.50
2019-05-15T08:37:03.264Z,81.50
2019-05-15T08:39:39.976Z,79.50
2019-05-15T08:42:18.688Z,77.90
2019-05-15T08:44:55.697Z,79.50
2019-05-15T08:47:31.861Z,81.30
2019-05-15T08:50:10.054Z,83.10
2019-05-15T08:52:51.452Z,79.70
2019-05-15T08:55:35.306Z,78.10
2019-05-15T08:58:13.971Z,81.60
2019-05-15T09:00:52.631Z,79.50
2019-05-15T09:03:35.102Z,81.40
2019-05-15T09:06:12.312Z,77.20
2019-05-15T09:08:49.348Z,76.70
2019-05-15T09:11:28.193Z,78.60
2019-05-15T09:13:59.468Z,77.50
2019-05-15T09:16:38.983Z,76.90
2019-05-15T09:19:18.345Z,78.80
2019-05-15T09:22:00.885Z,77.70
2019-05-15T09:24:38.488Z,77.80
2019-05-15T09:27:27.761Z,78.10
2019-05-15T09:30:04.336Z,79.70
2019-05-15T09:32:41.836Z,77.00
2019-05-15T09:35:22.618Z,77.00
2019-05-15T09:37:58.290Z,77.50
2019-05-15T09:40:45.245Z,75.80
2019-05-15T09:43:18.176Z,74.40
2019-05-15T09:45:58.811Z,73.20
2019-05-15T09:48:42.150Z,74.80
2019-05-15T09:51:20.472Z,75.60
2019-05-15T09:53:59.584Z,70.40
2019-05-15T09:56:41.593Z,70.90
2019-05-15T09:59:22.239Z,71.80
2019-05-15T10:01:59.034Z,69.60
2019-05-15T10:04:33.610Z,66.40
2019-05-15T10:07:11.902Z,66.30
2019-05-15T10:09:56.650Z,65.30
2019-05-15T10:12:35.230Z,61.90
2019-05-15T10:15:18.990Z,62.30
2019-05-15T10:17:59.676Z,62.30
2019-05-15T10:20:39.875Z,60.70
2019-05-15T10:23:19.500Z,61.00
2019-05-15T10:25:58.860Z,60.70
2019-05-15T10:28:38.858Z,59.20
2019-05-15T10:31:16.374Z,58.40
2019-05-15T10:33:51.948Z,55.50
2019-05-15T10:36:31.248Z,54.20
2019-05-15T10:39:10.026Z,54.70
2019-05-15T10:41:48.008Z,53.90
2019-05-15T10:44:21.854Z,55.50
2019-05-15T10:47:03.216Z,51.70
2019-05-15T10:49:38.987Z,54.70
2019-05-15T10:52:18.017Z,56.20
2019-05-15T10:54:55.322Z,53.40
2019-05-15T10:57:28.379Z,53.30
2019-05-15T11:00:08.686Z,52.90
2019-05-15T11:02:45.484Z,52.00
2019-05-15T11:05:36.369Z,53.10
2019-05-15T11:08:03.913Z,52.40
2019-05-15T11:10:41.893Z,53.60
2019-05-15T11:13:20.103Z,54.50
2019-05-15T11:15:55.599Z,53.80
2019-05-15T11:18:39.302Z,53.20
2019-05-15T11:21:15.341Z,50.90
2019-05-15T11:23:58.824Z,53.20
2019-05-15T11:26:39.188Z,52.70
2019-05-15T11:29:17.293Z,52.50
2019-05-15T11:31:54.376Z,50.40
2019-05-15T11:34:29.066Z,50.00
2019-05-15T11:37:09.759Z,49.00
2019-05-15T11:39:46.090Z,52.50
2019-05-15T11:42:23.620Z,50.90
2019-05-15T11:44:58.670Z,52.90
2019-05-15T11:47:35.721Z,52.20
2019-05-15T11:50:19.972Z,51.20
2019-05-15T11:52:58.384Z,51.80
2019-05-15T11:55:33.222Z,52.50
2019-05-15T11:58:19.274Z,49.20
2019-05-15T12:00:57.940Z,51.40
2019-05-15T12:03:38.510Z,51.20
2019-05-15T12:06:21.988Z,51.10
2019-05-15T12:08:58.425Z,55.00
2019-05-15T12:11:37.155Z,53.70
2019-05-15T12:14:13.539Z,54.50
2019-05-15T12:17:02.366Z,53.50
2019-05-15T12:19:29.198Z,51.50
2019-05-15T12:22:04.305Z,54.20
2019-05-15T12:24:49.516Z,53.60
2019-05-15T12:27:24.289Z,53.00
2019-05-15T12:30:02.101Z,56.00
2019-05-15T12:32:36.018Z,54.60
2019-05-15T12:35:00.465Z,56.20
2019-05-15T12:37:34.820Z,53.40
2019-05-15T13:01:40.260Z,56.90
2019-05-15T13:04:19.980Z,55.90
2019-05-15T13:07:12.382Z,56.80
2019-05-15T13:09:34.288Z,54.90
2019-05-15T13:12:09.030Z,55.60
2019-05-15T13:14:48.409Z,53.40
2019-05-15T13:17:23.945Z,52.50
2019-05-15T13:19:59.737Z,54.80
2019-05-15T13:22:39.390Z,53.90
2019-05-15T13:25:23.395Z,56.10
2019-05-15T13:28:05.496Z,53.80
2019-05-15T13:30:45.644Z,54.60
2019-05-15T13:33:22.709Z,59.60
2019-05-15T13:35:58.728Z,56.50
2019-05-15T13:38:38.510Z,56.10
2019-05-15T13:41:25.287Z,54.90
2019-05-15T13:44:01.486Z,57.50
2019-05-15T13:46:43.795Z,56.30
2019-05-15T13:49:20.150Z,56.50
2019-05-15T13:51:59.410Z,57.10
2019-05-15T13:54:37.805Z,55.60
2019-05-15T13:59:58.772Z,56.20
2019-05-15T14:02:32.264Z,56.30
2019-05-15T14:05:09.581Z,55.90
2019-05-15T14:07:53.509Z,57.60
2019-05-15T14:10:28.635Z,59.70
2019-05-15T14:13:06.582Z,57.90
2019-05-15T14:15:40.816Z,57.00
2019-05-15T14:18:23.193Z,57.70
2019-05-15T14:21:00.666Z,59.30
2019-05-15T14:23:38.382Z,58.30
2019-05-15T14:26:20.029Z,58.70
2019-05-15T14:28:54.331Z,57.00
2019-05-15T14:31:29.773Z,59.80
2019-05-15T14:34:08.640Z,59.70
2019-05-15T14:36:48.288Z,61.10
2019-05-15T14:39:24.181Z,59.00
2019-05-15T14:42:04.718Z,59.70
2019-05-15T14:44:38.657Z,60.00
2019-05-15T14:47:19.066Z,60.30
2019-05-15T14:49:58.421Z,61.90
2019-05-15T14:52:38.794Z,61.90
2019-05-15T14:55:16.260Z,62.60
2019-05-15T14:57:53.007Z,62.50
2019-05-15T15:00:35.191Z,63.50
2019-05-15T15:03:13.471Z,61.10
2019-05-15T15:05:50.333Z,62.10
2019-05-15T15:08:29.195Z,62.20
2019-05-15T15:11:11.199Z,62.90
2019-05-15T15:13:50.004Z,63.90
2019-05-15T15:16:34.262Z,64.80
2019-05-15T15:19:11.167Z,63.00
2019-05-15T15:21:45.511Z,62.60
2019-05-15T15:24:19.067Z,62.20
2019-05-15T15:26:59.070Z,65.90
2019-05-15T15:29:32.802Z,63.70
2019-05-15T15:32:09.433Z,64.20
2019-05-15T15:34:43.632Z,62.30
2019-05-15T15:37:18.835Z,61.30
2019-05-15T15:39:59.278Z,63.30
2019-05-15T15:42:34.881Z,62.20
2019-05-15T15:45:16.429Z,63.00
2019-05-15T15:47:53.235Z,61.30
2019-05-15T15:50:29.317Z,59.60
2019-05-15T15:52:59.309Z,62.10
2019-05-15T15:55:39.769Z,62.50
2019-05-15T15:58:20.188Z,62.10
2019-05-15T16:00:58.333Z,62.60
2019-05-15T16:03:38.033Z,63.30
2019-05-15T16:06:14.042Z,61.20
2019-05-15T16:08:55.767Z,61.70
2019-05-15T16:11:35.364Z,61.80
2019-05-15T16:14:18.953Z,59.30
2019-05-15T16:16:57.419Z,61.50
2019-05-15T16:19:39.221Z,63.90
2019-05-15T16:22:18.648Z,62.30
2019-05-15T16:25:02.663Z,63.80
2019-05-15T16:27:41.973Z,63.10
2019-05-15T16:30:28.643Z,62.30
2019-05-15T16:33:11.663Z,64.00
2019-05-15T16:35:49.330Z,65.00
2019-05-15T16:38:22.729Z,64.30
2019-05-15T16:41:00.317Z,64.30
2019-05-15T16:43:41.008Z,64.90
2019-05-15T16:46:24.453Z,64.70
2019-05-15T16:49:01.163Z,64.70
2019-05-15T16:51:44.932Z,65.90
2019-05-15T16:54:25.062Z,65.80
2019-05-15T16:57:04.119Z,64.90
2019-05-15T16:59:42.810Z,65.80
2019-05-15T17:02:18.641Z,65.20
2019-05-15T17:04:54.954Z,66.60
2019-05-15T17:07:32.696Z,65.50
2019-05-15T17:10:08.719Z,67.50
2019-05-15T17:12:45.956Z,65.60
2019-05-15T17:15:25.074Z,66.20
2019-05-15T17:18:03.663Z,66.30
2019-05-15T17:20:37.117Z,67.10
2019-05-15T17:23:13.694Z,65.90
2019-05-15T17:25:50.306Z,66.10
2019-05-15T17:28:30.775Z,66.20
2019-05-15T17:31:04.717Z,65.90
2019-05-15T17:33:53.261Z,65.60
2019-05-15T17:36:32.072Z,67.40
2019-05-15T17:39:09.961Z,65.50
2019-05-15T17:41:48.444Z,66.50
2019-05-15T17:44:23.647Z,66.00
2019-05-15T17:47:04.554Z,66.50
2019-05-15T17:49:44.154Z,66.40
2019-05-15T17:52:21.861Z,67.40
2019-05-15T17:54:59.329Z,67.80
2019-05-15T17:57:33.997Z,67.30
2019-05-15T18:00:12.777Z,68.40
2019-05-15T18:02:48.597Z,68.50
2019-05-15T18:05:28.267Z,66.90
2019-05-15T18:08:04.765Z,67.80
2019-05-15T18:10:45.106Z,69.00
2019-05-15T18:13:21.701Z,68.60
2019-05-15T18:16:02.997Z,68.80
2019-05-15T18:18:44.639Z,68.60
2019-05-15T18:21:23.176Z,69.90
2019-05-15T18:24:02.038Z,69.20
2019-05-15T18:26:54.139Z,69.20
2019-05-15T18:29:32.081Z,68.90
2019-05-15T18:32:08.762Z,68.70
2019-05-15T18:34:43.606Z,68.50
2019-05-15T18:37:20.532Z,68.30
2019-05-15T18:40:05.210Z,69.40
2019-05-15T18:42:40.420Z,69.10
2019-05-15T18:45:18.283Z,69.80
2019-05-15T18:47:50.386Z,70.20
2019-05-15T18:50:30.787Z,70.00
2019-05-15T18:53:08.906Z,70.50
2019-05-15T18:55:52.262Z,69.90
2019-05-15T18:58:28.119Z,70.40
2019-05-15T19:01:03.549Z,71.50
2019-05-15T19:03:41.071Z,72.30
2019-05-15T19:06:15.091Z,72.60
2019-05-15T19:08:49.207Z,71.80
2019-05-15T19:11:28.891Z,72.40
2019-05-15T19:13:58.897Z,72.40
2019-05-15T19:16:28.194Z,73.50
2019-05-15T19:18:58.559Z,73.50
2019-05-15T19:21:27.758Z,73.70
2019-05-15T19:23:58.280Z,74.20
2019-05-15T19:26:29.024Z,75.60
2019-05-15T19:28:58.932Z,74.70
2019-05-15T19:31:30.495Z,76.50
2019-05-15T19:33:57.557Z,77.20
2019-05-15T19:36:27.685Z,77.60
2019-05-15T19:38:56.313Z,76.10
2019-05-15T19:41:25.396Z,76.60
2019-05-15T19:43:53.926Z,77.40
2019-05-15T19:46:22.681Z,78.40
2019-05-15T19:48:51.377Z,80.60
2019-05-15T19:51:20.339Z,80.10
2019-05-15T19:53:49.366Z,80.80
2019-05-15T19:56:18.865Z,80.40
2019-05-15T19:58:47.518Z,83.00
2019-05-15T20:01:18.595Z,82.10
2019-05-15T20:03:52.683Z,82.10
2019-05-15T20:06:18.686Z,84.10
2019-05-15T20:08:47.879Z,81.90
2019-05-15T20:11:18.366Z,81.40
2019-05-15T20:13:48.889Z,81.20
2019-05-15T20:16:20.798Z,82.40
2019-05-15T20:18:47.899Z,80.20
2019-05-15T20:21:18.178Z,81.80
2019-05-15T20:23:48.818Z,84.20
2019-05-15T20:26:18.058Z,85.50
2019-05-15T20:28:48.294Z,83.40
2019-05-15T20:31:18.839Z,86.10
2019-05-15T20:33:48.422Z,87.00
2019-05-15T20:36:18.390Z,87.60
2019-05-15T20:38:48.436Z,88.80
2019-05-15T20:41:18.695Z,90.50
2019-05-15T20:43:49.058Z,90.60
2019-05-15T20:46:19.245Z,90.90
2019-05-15T20:48:48.737Z,91.40
2019-05-15T20:51:18.520Z,91.60
2019-05-15T20:53:48.607Z,91.90
2019-05-15T20:56:17.627Z,92.40
2019-05-15T20:58:47.851Z,92.70
2019-05-15T21:01:18.294Z,92.50
2019-05-15T21:03:50.466Z,93.10
2019-05-15T21:06:17.917Z,93.20
2019-05-15T21:08:48.754Z,93.90
2019-05-15T21:11:18.053Z,93.80
2019-05-15T21:13:49.162Z,94.10
2019-05-15T21:16:18.719Z,93.80
2019-05-15T21:18:47.860Z,94.20
2019-05-15T21:21:18.905Z,95.00
2019-05-15T21:24:24.395Z,95.10
2019-05-15T21:26:58.794Z,95.80
2019-05-15T21:29:28.339Z,96.30
2019-05-15T21:31:58.199Z,96.30
2019-05-15T21:34:37.560Z,96.90
2019-05-15T21:36:59.071Z,97.40
2019-05-15T21:39:28.068Z,97.40
2019-05-15T21:41:58.415Z,98.50
2019-05-15T21:44:29.337Z,98.40
2019-05-15T21:46:58.696Z,97.60
2019-05-15T21:49:28.163Z,97.60
2019-05-15T21:51:58.402Z,98.10
2019-05-15T21:54:28.184Z,99.90
2019-05-15T21:57:12.774Z,99.90
2019-05-15T21:59:27.858Z,99.90
2019-05-15T22:01:58.761Z,99.90
2019-05-15T22:04:28.182Z,99.90
2019-05-15T22:06:58.486Z,99.90
2019-05-15T22:09:29.081Z,99.90
2019-05-15T22:12:01.162Z,99.90
2019-05-15T22:14:29.146Z,99.90
2019-05-15T22:16:59.985Z,99.90
2019-05-15T22:19:30.393Z,99.90
2019-05-15T22:21:59.269Z,99.90
2019-05-15T22:24:28.545Z,99.90
2019-05-15T22:26:58.701Z,99.90
2019-05-15T22:29:28.859Z,99.90
2019-05-15T22:31:59.040Z,99.90
2019-05-15T22:34:28.512Z,99.90
2019-05-15T22:36:58.274Z,99.90
2019-05-15T22:39:28.078Z,99.90
2019-05-15T22:41:57.471Z,99.90
2019-05-15T22:44:28.177Z,99.90
2019-05-15T22:46:58.117Z,99.90
2019-05-15T22:49:28.804Z,99.90
2019-05-15T22:51:58.157Z,99.90
2019-05-15T22:54:28.064Z,99.90
2019-05-15T22:56:57.692Z,99.90
2019-05-15T22:59:28.223Z,99.90
2019-05-15T23:01:58.195Z,99.90
2019-05-15T23:04:28.678Z,99.90
2019-05-15T23:06:57.626Z,99.90
2019-05-15T23:09:28.425Z,99.90
2019-05-15T23:11:58.870Z,99.90
2019-05-15T23:14:28.721Z,99.90
2019-05-15T23:16:59.016Z,99.90
2019-05-15T23:19:28.118Z,99.90
2019-05-15T23:21:58.924Z,99.90
2019-05-15T23:24:28.181Z,99.90
2019-05-15T23:26:58.270Z,99.90
2019-05-15T23:29:27.488Z,99.90
2019-05-15T23:31:58.259Z,99.90
2019-05-15T23:34:27.979Z,99.90
2019-05-15T23:36:57.701Z,99.90
2019-05-15T23:39:26.506Z,99.90
2019-05-15T23:41:55.465Z,99.90
2019-05-15T23:44:24.110Z,99.90
2019-05-15T23:46:52.593Z,99.90
2019-05-15T23:49:21.305Z,99.90
2019-05-15T23:51:49.927Z,99.90
2019-05-15T23:54:18.605Z,99.90
2019-05-15T23:56:47.630Z,99.90
2019-05-15T23:59:18.636Z,99.90
